Terminal Aerodrome Forecast
Issued by NWS

Home | Current Version | Previous Version | Text Only | Print | Product List | Glossary On
Versions: 1 2 3 4 5 6 7 8 9 10 11 12 13 14 15 16 17 18 19
000
FTUS44 KHGX 010744 AAA
TAFUTS
TAF AMD
KUTS 010744Z 0108/0206 00000KT P6SM SCT010 BKN250
      TEMPO 0112/0114 4SM BR BKN008
     FM011500 17004KT P6SM SCT025 BKN250
     FM011800 17005KT P6SM VCSH SCT035 BKN250
     FM012100 15006KT P6SM VCTS SCT040CB BKN200
      TEMPO 0123/0202 TSRA
     FM020300 VRB03KT P6SM SCT025 BKN120=

USA.gov is the U.S. government's official web portal to all federal, state and local government web resources and services.